UMMSUMGG

Guest
Details From UMMS - Minsk Velikiydvor
To UMGG - Gomel
Flight Number -
Tags Generated
Created
Modified
Stats Distance 135 nm / 250 km
Max Altitude 0 ft / 0 m
Waypoints 2
Social Downloads 8
Likes 0
Share VATSIM

Download

Looking for another format? Having issues loading an existing format? Contact us
Advertisement - Login to hide

Notes

Generated

Route

UMMS UMGG

ID Type Via Altitude Latitude Longitude Leg Dist Tot Dist Heading (true) Name
O UMMS APT - 0 ft / 0 m 53.89487˚ 28.01253˚ - 0 nm - -
O UMGG APT - 0 ft / 0 m 52.53112˚ 30.99878˚ 135 nm 135 nm 126° / 129° -

Altitude Profile

Advertisement - Login to hide

UMMS

Details ICAO UMMS (MSQ)
Name Minsk Velikiydvor
Region Belarus and Russia (Kaliningrad Oblast)
Timezone Europe/Minsk (UTC+3.0)
Stats Elevation 669 ft / 204 m (AMSL)
Location 53.882550° 28.030786°
Runways 1
Magnetic Variation 8.010° E

METAR

UMMS 170430Z 29003G06MPS 240V320 9999 OVC008 M00/M02 Q1009 R31/620545 NOSIG

Decode

TAF

TAF UMMS 162309Z 1700/1724 29006MPS 3000 -SNRA BR OVC003 TX01/1712Z TNM01/1702Z TEMPO 1700/1709 0500 -FZDZ FZFG BKN002 FM170900 27005G10MPS 6000 BKN007 TEMPO 1709/1724 1200 -SHSNRA BR BCFG BKN003 BKN012CB

Decode

Departure Runways

ID Width Length Bearing (true) Bearing (mag) Surface Threshold Offset Overrun Length
13 197 ft / 60 m 11,938 ft / 3,639 m 138.85° 130.84° Concrete 0 ft / 0 m 0 ft / 0 m
31 197 ft / 60 m 11,938 ft / 3,639 m 318.88° 310.87° Concrete 0 ft / 0 m 0 ft / 0 m

UMGG

Details ICAO UMGG (GME)
Name Gomel
Region Belarus and Russia (Kaliningrad Oblast)
Timezone Europe/Minsk (UTC+3.0)
Stats Elevation 472 ft / 144 m (AMSL)
Location 52.527026° 31.016471°
Runways 1
Magnetic Variation 8.335° E

METAR

UMGG 170430Z 26006G09MPS 9999 OVC014 01/M01 Q1010 R10/290050 NOSIG

Decode

TAF

TAF UMGG 162300Z 1700/1724 24006G11MPS 6000 BKN007 TX03/1700Z TNM01/1716Z TEMPO 1700/1707 1200 -SHRASN BR BKN004 SCT015CB BECMG 1707/1709 27006MPS TEMPO 1709/1714 30006MPS BKN005 TEMPO 1714/1724 34007MPS 1200 BR BKN004

Decode

Destination Runways

ID Width Length Bearing (true) Bearing (mag) Surface Threshold Offset Overrun Length
11 141 ft / 43 m 8,405 ft / 2,562 m 110.82° 102.48° Asphalt 0 ft / 0 m 164 ft / 50 m
29 141 ft / 43 m 8,405 ft / 2,562 m 290.85° 282.51° Asphalt 0 ft / 0 m 164 ft / 50 m

Approach Navaids

Runway Type Ident Frequency Range Bearing (true) Bearing (mag) Slope Elevation
11 Localiser IGM 109.30 MHz 18 nm / 33 km 110.82° 102.48° - 471 ft / 144 m (AMSL)
11 Glidescope IGM 109.30 MHz 10 nm / 19 km 109.18° 100.84° 2.70° 471 ft / 144 m (AMSL)
29 Localiser IMV 108.70 MHz 18 nm / 33 km 290.82° 282.48° - 471 ft / 144 m (AMSL)
29 Glidescope IMV 108.70 MHz 10 nm / 19 km 290.82° 282.48° 2.70° 471 ft / 144 m (AMSL)

Popular Alternatives